메인 페이지
METAR-TAF:

METAR-TAF

공항 :

이아시, 루마니아

위도: 47-10N, 경도: 027-38E, 고도: 102m

현재 날씨관측

예보는 20분 전, 10:30시(UTC)에 발표되었습니다.
남남동8kt
온도 1°C
습도 80%
기압 1029 hPa
시정 10km 이상
고도 1400ft 상공 구름 많음

METAR: LRIA 181030Z 16008KT 9999 BKN014 01/M02 Q1029 R14/19//95

시각: 12:50 (10:50 UTC)

예보

예보는 2 시간 50분 전, 08:00시(UTC)에 발표되었습니다.
예보 대상 시간: 18일 09시부터 18일 18시까지 (UTC)
남남동7kt
시정 10km 이상
고도 1500ft 상공 구름 많음
전환 중
18일 09시부터 18일 11시까지 (UTC)
고도 2500ft 상공 구름 많음

TAF: LRIA 180800Z 1809/1818 15007KT 9999 BKN015 BECMG 1809/1811 BKN025

4,000개 이상의 공항 관측 자료 및 예보 (METAR 및 TAF 보고).

지도상에서 검색 가능한 기상관측소가 노란 점과 빨간 점으로 표시되어 있습니다.

기상관측소 명을 보려면 표시 위로 마우스를 이동하세요.

날씨 관측과 예보를 보려면 클릭하세요.

지도 변경 : 확대하려면 엑스 표시가 있는 녹색 버튼, 축소하려면 빼기 표시가 있는 녹색 버튼, 다음 페이지의 지도를 보려면 녹색 화살표를 클릭하세요.


METAR-TAF: